Terminal Aerodrome Forecast
Issued by NWS

Home | Current Version | Previous Version | Text Only | Print | Product List | Glossary On
Versions: 1 2 3 4 5 6 7 8 9 10 11 12
000
FTUS45 KRIW 031700
TAFJAC
TAF
KJAC 031721Z 0318/0418 20010KT P6SM VCSH SCT080 BKN150
     FM032000 VRB10G20KT P6SM VCTS SCT050CB BKN100
     FM040200 VRB10G15KT P6SM VCSH SCT040 BKN080
     FM040600 VRB05KT P6SM SCT100
     FM041400 19005KT P6SM SCT150
      AMD LTD TO CLD VIS AND WIND=

USA.gov is the U.S. government's official web portal to all federal, state and local government web resources and services.